Meteo Giornale » Osservazioni meteo Italia » Capo Bellavista

ore: 04:55 - Osservazioni Meteo Capo Bellavista
Lat. 39° 56' N Lon. 9° 43' E Alt. 138 metri s.l.m.

sereno Europe/Rome

27 °C

Sereno

Temp. 24 Ore

24 °C

36 °C

Nord

5.5 Km/h

Dew point 19 °C

Umidità 61 %

Visibilità  10 Km

Il sole sorge alle ore 06:08

Il sole tramonta alle ore 20:46

Data e Ora Cielo e Fenomeni T °C DP °C Um. % Pres. hPa Vis. km Vento km/h
Oggi h: 04:55 sereno Sereno 27 19 61 1011 10 N 5.5
Oggi h: 03:55 sereno Sereno 27 23 78 1012 10 N/NO 11.1
Oggi h: 02:55 sereno Sereno 27 24 83 1012 10 E 14.8
Oggi h: 01:55 sereno Sereno 27 21 69 1013 10 E/NE 14.8
Ieri h: 23:55 sereno Sereno 27 20 65 1013 10 NO 16.7
Ieri h: 22:55 sereno Sereno 27 22 74 1013 10 NO 7.4
Ieri h: 21:55 sereno Sereno 28 25 83 1013 10 SO 7.4
Ieri h: 20:55 sereno Sereno 28 26 88 1013 10 S/SO 11.1
Ieri h: 19:55 sereno Sereno 30 26 79 1013 10 N 5.5
Ieri h: 18:55 sereno Sereno 30 24 70 1014 10 N 5.5
Ieri h: 17:55 sereno Sereno 31 25 70 1014 10 S/SE 11.1
Ieri h: 16:55 sereno Sereno 32 26 70 1015 10 S 9.3
Ieri h: 13:55 sereno Sereno 36 26 56 1016 10 SE 11.1
Ieri h: 12:55 sereno Sereno 36 27 60 1017 10 E/SE 14.8
Ieri h: 11:55 sereno Sereno 34 27 67 1017 10 E/SE 14.8
Ieri h: 10:55 sereno Sereno 34 28 71 1017 10 O/SO 11.1
Ieri h: 09:55 sereno Sereno 32 25 66 1016 10 E 14.8
Ieri h: 08:55 sereno Sereno 28 18 54 1016 10 N 3.7
Ieri h: 07:55 sereno Sereno 25 17 61 1016 10 NO 13
Ieri h: 06:55 sereno Sereno 24 17 64 1016 10 O/NO 20.3
Ieri h: 05:55 sereno Sereno 24 18 69 1016 10 NO 16.7